GMADLEAM

Guest
Details From GMAD - Al Massira
To LEAM - Almeria
Flight Number -
Tags Generated
Created
Modified
Stats Distance 526 nm / 974 km
Max Altitude 0 ft / 0 m
Waypoints 3
Social Downloads 0
Likes 0
Share VATSIM

Download

Looking for another format? Having issues loading an existing format? Contact us
Advertisement - Login to hide

Notes

Generated

Route

GMAD AMR09 LEAM

ID Type Via Altitude Latitude Longitude Leg Dist Tot Dist Heading (true) Name
O GMAD APT - 0 ft / 0 m 30.32539˚ -9.42970˚ - 0 nm - -
AMR09 FIX - 0 ft / 0 m 36.79667˚ -2.44076˚ 522 nm 522 nm 40° / 44° -
O LEAM APT - 0 ft / 0 m 36.83972˚ -2.38726˚ 3 nm 526 nm 45° / 45° -

Altitude Profile

Advertisement - Login to hide

Weather


0- 5 10 15 20 25 30 35+ Temperature / ° C

Clouds and Precipitation
Forecast for 2017-12-18 00:00 UTC. Updated 24 minutes ago

Ground ~20,000 ft ~40,000 ft Winds

GMAD

Details ICAO GMAD
Name Agadir AL MASSIRA
Region Morocco
Timezone Africa/Casablanca (UTC+0.0)
Stats Elevation 250 ft / 76 m (AMSL)
Location 30.322623° -9.411528°
Runways 1
Magnetic Variation 2.481° W

METAR

GMAD 172330Z 11003KT CAVOK 12/10 Q1022 NOSIG

Decode

TAF

TAF GMAD 171700Z 1718/1824 08006KT CAVOK BECMG 1812/1814 26010KT

Decode

Departure Runways

ID Width Length Bearing (true) Bearing (mag) Surface Threshold Offset Overrun Length
10 148 ft / 45 m 10,509 ft / 3,203 m 91.58° 94.06° Asphalt 0 ft / 0 m 0 ft / 0 m
28 148 ft / 45 m 10,509 ft / 3,203 m 271.60° 274.08° Asphalt 0 ft / 0 m 0 ft / 0 m

LEAM

Details ICAO LEAM (LEI)
Name Almeria
Region Spain
Timezone Unknown (UTC+0.0)
Stats Elevation 70 ft / 21 m (AMSL)
Location 36.843935° -2.370097°
Runways 1
Magnetic Variation 0.287° W

METAR

LEAM 172330Z AUTO 33013KT 9999 NCD 09/02 Q1031

Decode

TAF

TAF LEAM 172000Z 1721/1821 35010KT CAVOK TX16/1814Z TN06/1807Z BECMG 1811/1813 21008KT BECMG 1819/1821 34010KT

Decode

Destination Runways

ID Width Length Bearing (true) Bearing (mag) Surface Threshold Offset Overrun Length
08 148 ft / 45 m 10,484 ft / 3,196 m 72.94° 73.23° Asphalt 492 ft / 150 m 191 ft / 58 m
26 148 ft / 45 m 10,484 ft / 3,196 m 252.96° 253.25° Asphalt 0 ft / 0 m 150 ft / 46 m

Approach Navaids

Runway Type Ident Frequency Range Bearing (true) Bearing (mag) Slope Elevation
26 Localiser IAM 109.90 MHz 18 nm / 33 km 252.94° 253.22° - 70 ft / 21 m (AMSL)
26 Glidescope IAM 109.90 MHz 10 nm / 19 km 252.95° 253.23° 3.00° 70 ft / 21 m (AMSL)
26 DME IAM 109.90 MHz 18 nm / 33 km - - - 95 ft / 29 m (AMSL)